Terminal Aerodrome Forecast
Issued by NWS

Home | Current Version | Previous Version | Text Only | Print | Product List | Glossary On
Versions: 1 2 3 4 5 6 7 8 9 10 11 12 13 14 15 16 17
000
FTAK31 PAJN 242331
TAFAPG
TAF
PAPG 242331Z 2500/2524 09005KT 5SM -SHRA BR FEW010 BKN030 OVC040
      WS020/15030KT
     FM250600 VRB03KT 3SM -SHRA BR BCFG SCT003 OVC025
     FM251800 VRB04KT P6SM SCT020 OVC050=

USA.gov is the U.S. government's official web portal to all federal, state and local government web resources and services.